sensor_id;sensor_type;location;lat;lon;timestamp;pressure;altitude;pressure_sealevel;temperature;humidity
72438;BME280;60444;43.534;-5.674;2024-02-04T00:01:28;103336.41;;;11.82;100.00
72438;BME280;60444;43.534;-5.674;2024-02-04T00:03:54;103338.25;;;11.80;100.00
72438;BME280;60444;43.534;-5.674;2024-02-04T00:06:19;103347.13;;;11.90;100.00
72438;BME280;60444;43.534;-5.674;2024-02-04T00:08:45;103340.88;;;11.85;100.00
72438;BME280;60444;43.534;-5.674;2024-02-04T00:11:10;103335.50;;;11.83;100.00
72438;BME280;60444;43.534;-5.674;2024-02-04T00:13:38;103331.00;;;11.82;100.00
72438;BME280;60444;43.534;-5.674;2024-02-04T00:16:03;103331.00;;;11.82;100.00
72438;BME280;60444;43.534;-5.674;2024-02-04T00:18:29;103353.41;;;11.93;100.00
72438;BME280;60444;43.534;-5.674;2024-02-04T00:20:54;103351.69;;;11.89;100.00
72438;BME280;60444;43.534;-5.674;2024-02-04T00:23:20;103343.59;;;11.85;100.00
72438;BME280;60444;43.534;-5.674;2024-02-04T00:25:45;103342.69;;;11.86;100.00
72438;BME280;60444;43.534;-5.674;2024-02-04T00:28:11;103329.25;;;11.78;100.00
72438;BME280;60444;43.534;-5.674;2024-02-04T00:30:37;103339.97;;;11.84;100.00
72438;BME280;60444;43.534;-5.674;2024-02-04T00:33:04;103322.00;;;11.77;100.00
72438;BME280;60444;43.534;-5.674;2024-02-04T00:35:29;103348.94;;;11.91;100.00
72438;BME280;60444;43.534;-5.674;2024-02-04T00:37:55;103335.47;;;11.85;100.00
72438;BME280;60444;43.534;-5.674;2024-02-04T00:40:21;103313.94;;;11.74;100.00
72438;BME280;60444;43.534;-5.674;2024-02-04T00:42:46;103345.38;;;11.87;100.00
72438;BME280;60444;43.534;-5.674;2024-02-04T00:45:12;103345.28;;;11.93;100.00
72438;BME280;60444;43.534;-5.674;2024-02-04T00:47:37;103343.44;;;11.97;100.00
72438;BME280;60444;43.534;-5.674;2024-02-04T00:50:03;103339.84;;;11.95;100.00
72438;BME280;60444;43.534;-5.674;2024-02-04T00:52:28;103329.91;;;11.94;100.00
72438;BME280;60444;43.534;-5.674;2024-02-04T00:54:54;103316.44;;;11.86;100.00
72438;BME280;60444;43.534;-5.674;2024-02-04T00:57:19;103318.22;;;11.90;100.00
72438;BME280;60444;43.534;-5.674;2024-02-04T00:59:45;103335.31;;;11.97;100.00
72438;BME280;60444;43.534;-5.674;2024-02-04T01:02:10;103335.31;;;11.97;100.00
72438;BME280;60444;43.534;-5.674;2024-02-04T01:04:36;103320.00;;;11.90;100.00
72438;BME280;60444;43.534;-5.674;2024-02-04T01:07:02;103319.16;;;11.88;100.00
72438;BME280;60444;43.534;-5.674;2024-02-04T01:09:28;103333.50;;;11.96;100.00
72438;BME280;60444;43.534;-5.674;2024-02-04T01:11:53;103328.16;;;11.91;100.00
72438;BME280;60444;43.534;-5.674;2024-02-04T01:14:19;103334.47;;;11.90;100.00
72438;BME280;60444;43.534;-5.674;2024-02-04T01:16:44;103304.72;;;11.84;100.00
72438;BME280;60444;43.534;-5.674;2024-02-04T01:19:10;103318.34;;;11.81;100.00
72438;BME280;60444;43.534;-5.674;2024-02-04T01:21:35;103329.00;;;11.93;100.00
72438;BME280;60444;43.534;-5.674;2024-02-04T01:24:01;103330.88;;;11.91;100.00
72438;BME280;60444;43.534;-5.674;2024-02-04T01:26:26;103339.78;;;11.99;100.00
72438;BME280;60444;43.534;-5.674;2024-02-04T01:28:52;103324.53;;;11.91;100.00
72438;BME280;60444;43.534;-5.674;2024-02-04T01:31:18;103305.66;;;11.83;100.00
72438;BME280;60444;43.534;-5.674;2024-02-04T01:33:43;103343.38;;;12.01;100.00
72438;BME280;60444;43.534;-5.674;2024-02-04T01:36:09;103305.63;;;11.85;100.00
72438;BME280;60444;43.534;-5.674;2024-02-04T01:38:34;103314.59;;;11.91;100.00
72438;BME280;60444;43.534;-5.674;2024-02-04T01:41:00;103311.00;;;11.89;100.00
72438;BME280;60444;43.534;-5.674;2024-02-04T01:43:25;103314.59;;;11.91;100.00
72438;BME280;60444;43.534;-5.674;2024-02-04T01:45:51;103338.00;;;11.98;100.00
72438;BME280;60444;43.534;-5.674;2024-02-04T01:48:19;103310.22;;;11.80;100.00
72438;BME280;60444;43.534;-5.674;2024-02-04T01:50:45;103315.56;;;11.87;100.00
72438;BME280;60444;43.534;-5.674;2024-02-04T01:53:12;103320.09;;;11.85;100.00
72438;BME280;60444;43.534;-5.674;2024-02-04T01:55:39;103345.19;;;11.99;100.00
72438;BME280;60444;43.534;-5.674;2024-02-04T01:58:04;103311.16;;;11.79;100.00
72438;BME280;60444;43.534;-5.674;2024-02-04T02:00:30;103323.72;;;11.84;100.00
72438;BME280;60444;43.534;-5.674;2024-02-04T02:02:56;103324.63;;;11.83;100.00
72438;BME280;60444;43.534;-5.674;2024-02-04T02:05:25;103307.53;;;11.80;100.00
72438;BME280;60444;43.534;-5.674;2024-02-04T02:07:50;103323.66;;;11.89;100.00
72438;BME280;60444;43.534;-5.674;2024-02-04T02:10:18;103332.63;;;11.94;100.00
72438;BME280;60444;43.534;-5.674;2024-02-04T02:12:50;103323.66;;;11.89;100.00
72438;BME280;60444;43.534;-5.674;2024-02-04T02:15:22;103336.22;;;11.96;100.00
72438;BME280;60444;43.534;-5.674;2024-02-04T02:17:57;103309.31;;;11.82;100.00
72438;BME280;60444;43.534;-5.674;2024-02-04T02:23:21;103335.41;;;11.89;100.00
72438;BME280;60444;43.534;-5.674;2024-02-04T02:25:47;103338.06;;;11.92;100.00
72438;BME280;60444;43.534;-5.674;2024-02-04T02:28:14;103307.53;;;11.78;100.00
72438;BME280;60444;43.534;-5.674;2024-02-04T02:30:40;103326.41;;;11.84;100.00
72438;BME280;60444;43.534;-5.674;2024-02-04T02:33:06;103332.69;;;11.89;100.00
72438;BME280;60444;43.534;-5.674;2024-02-04T02:35:34;103328.25;;;11.84;100.00
72438;BME280;60444;43.534;-5.674;2024-02-04T02:40:47;103304.03;;;11.70;100.00
72438;BME280;60444;43.534;-5.674;2024-02-04T02:43:14;103325.56;;;11.82;100.00
72438;BME280;60444;43.534;-5.674;2024-02-04T02:45:42;103338.13;;;11.89;100.00
72438;BME280;60444;43.534;-5.674;2024-02-04T02:48:08;103325.56;;;11.82;100.00
72438;BME280;60444;43.534;-5.674;2024-02-04T02:50:36;103330.91;;;11.87;100.00
72438;BME280;60444;43.534;-5.674;2024-02-04T02:53:02;103295.00;;;11.68;100.00
72438;BME280;60444;43.534;-5.674;2024-02-04T02:55:27;103303.06;;;11.74;100.00
72438;BME280;60444;43.534;-5.674;2024-02-04T02:57:53;103296.81;;;11.71;100.00
72438;BME280;60444;43.534;-5.674;2024-02-04T03:00:18;103313.84;;;11.80;100.00
72438;BME280;60444;43.534;-5.674;2024-02-04T03:02:44;103290.53;;;11.67;100.00
72438;BME280;60444;43.534;-5.674;2024-02-04T03:05:10;103307.59;;;11.75;100.00
72438;BME280;60444;43.534;-5.674;2024-02-04T03:07:38;103295.00;;;11.71;100.00
72438;BME280;60444;43.534;-5.674;2024-02-04T03:10:04;103275.19;;;11.63;100.00
72438;BME280;60444;43.534;-5.674;2024-02-04T03:12:29;103277.88;;;11.63;100.00
72438;BME280;60444;43.534;-5.674;2024-02-04T03:14:55;103294.97;;;11.73;100.00
72438;BME280;60444;43.534;-5.674;2024-02-04T03:17:20;103303.06;;;11.76;100.00
72438;BME280;60444;43.534;-5.674;2024-02-04T03:19:48;103282.41;;;11.63;100.00
72438;BME280;60444;43.534;-5.674;2024-02-04T03:22:14;103302.19;;;11.75;100.00
72438;BME280;60444;43.534;-5.674;2024-02-04T03:24:40;103286.00;;;11.68;100.00
72438;BME280;60444;43.534;-5.674;2024-02-04T03:27:05;103292.34;;;11.67;100.00
72438;BME280;60444;43.534;-5.674;2024-02-04T03:29:31;103276.13;;;11.59;100.00
72438;BME280;60444;43.534;-5.674;2024-02-04T03:31:56;103287.81;;;11.67;100.00
72438;BME280;60444;43.534;-5.674;2024-02-04T03:34:22;103288.75;;;11.63;100.00
72438;BME280;60444;43.534;-5.674;2024-02-04T03:36:47;103282.50;;;11.58;100.00
72438;BME280;60444;43.534;-5.674;2024-02-04T03:39:13;103277.06;;;11.58;100.00
72438;BME280;60444;43.534;-5.674;2024-02-04T03:41:39;103280.69;;;11.56;100.00
72438;BME280;60444;43.534;-5.674;2024-02-04T03:44:04;103271.72;;;11.52;100.00
72438;BME280;60444;43.534;-5.674;2024-02-04T03:46:30;103286.06;;;11.60;100.00
72438;BME280;60444;43.534;-5.674;2024-02-04T03:48:56;103260.94;;;11.49;100.00
72438;BME280;60444;43.534;-5.674;2024-02-04T03:51:22;103284.31;;;11.56;100.00
72438;BME280;60444;43.534;-5.674;2024-02-04T03:53:47;103278.94;;;11.53;100.00
72438;BME280;60444;43.534;-5.674;2024-02-04T03:56:13;103269.94;;;11.51;100.00
72438;BME280;60444;43.534;-5.674;2024-02-04T03:58:39;103287.84;;;11.61;100.00
72438;BME280;60444;43.534;-5.674;2024-02-04T04:01:04;103276.16;;;11.58;100.00
72438;BME280;60444;43.534;-5.674;2024-02-04T04:03:30;103282.50;;;11.58;100.00
72438;BME280;60444;43.534;-5.674;2024-02-04T04:05:56;103289.66;;;11.62;100.00
72438;BME280;60444;43.534;-5.674;2024-02-04T04:08:21;103270.84;;;11.50;100.00
72438;BME280;60444;43.534;-5.674;2024-02-04T04:10:46;103282.53;;;11.55;100.00
72438;BME280;60444;43.534;-5.674;2024-02-04T04:13:13;103296.91;;;11.60;100.00
72438;BME280;60444;43.534;-5.674;2024-02-04T04:15:39;103258.41;;;11.37;100.00
72438;BME280;60444;43.534;-5.674;2024-02-04T04:18:05;103274.53;;;11.44;100.00
72438;BME280;60444;43.534;-5.674;2024-02-04T04:20:30;103301.50;;;11.57;100.00
72438;BME280;60444;43.534;-5.674;2024-02-04T04:22:56;103287.13;;;11.48;100.00
72438;BME280;60444;43.534;-5.674;2024-02-04T04:25:21;103297.94;;;11.52;100.00
72438;BME280;60444;43.534;-5.674;2024-02-04T04:27:47;103292.53;;;11.48;100.00
72438;BME280;60444;43.534;-5.674;2024-02-04T04:30:12;103266.47;;;11.40;100.00
72438;BME280;60444;43.534;-5.674;2024-02-04T04:32:38;103262.91;;;11.36;100.00
72438;BME280;60444;43.534;-5.674;2024-02-04T04:35:04;103271.88;;;11.41;100.00
72438;BME280;60444;43.534;-5.674;2024-02-04T04:37:29;103274.59;;;11.40;100.00
72438;BME280;60444;43.534;-5.674;2024-02-04T04:39:55;103289.84;;;11.47;100.00
72438;BME280;60444;43.534;-5.674;2024-02-04T04:42:20;103294.34;;;11.49;100.00
72438;BME280;60444;43.534;-5.674;2024-02-04T04:44:46;103287.97;;;11.52;100.00
72438;BME280;60444;43.534;-5.674;2024-02-04T04:47:12;103270.00;;;11.45;100.00
72438;BME280;60444;43.534;-5.674;2024-02-04T04:49:37;103278.06;;;11.51;100.00
72438;BME280;60444;43.534;-5.674;2024-02-04T04:52:03;103269.97;;;11.46;100.00
72438;BME280;60444;43.534;-5.674;2024-02-04T04:54:28;103287.06;;;11.55;100.00
72438;BME280;60444;43.534;-5.674;2024-02-04T04:56:54;103271.81;;;11.46;100.00
72438;BME280;60444;43.534;-5.674;2024-02-04T04:59:19;103268.22;;;11.44;100.00
72438;BME280;60444;43.534;-5.674;2024-02-04T05:01:46;103294.22;;;11.59;100.00
72438;BME280;60444;43.534;-5.674;2024-02-04T05:04:12;103279.06;;;11.44;100.00
72438;BME280;60444;43.534;-5.674;2024-02-04T05:06:41;103305.16;;;11.52;100.00
72438;BME280;60444;43.534;-5.674;2024-02-04T05:09:06;103308.75;;;11.53;100.00
72438;BME280;60444;43.534;-5.674;2024-02-04T05:11:32;103283.66;;;11.39;100.00
72438;BME280;60444;43.534;-5.674;2024-02-04T05:13:57;103285.38;;;11.43;100.00
72438;BME280;60444;43.534;-5.674;2024-02-04T05:16:23;103280.03;;;11.40;100.00
72438;BME280;60444;43.534;-5.674;2024-02-04T05:18:48;103298.81;;;11.52;100.00
72438;BME280;60444;43.534;-5.674;2024-02-04T05:21:14;103277.31;;;11.40;100.00
72438;BME280;60444;43.534;-5.674;2024-02-04T05:23:40;103290.66;;;11.53;100.00
72438;BME280;60444;43.534;-5.674;2024-02-04T05:26:05;103297.03;;;11.51;100.00
72438;BME280;60444;43.534;-5.674;2024-02-04T05:28:32;103295.28;;;11.47;100.00
72438;BME280;60444;43.534;-5.674;2024-02-04T05:30:57;103302.47;;;11.51;100.00
72438;BME280;60444;43.534;-5.674;2024-02-04T05:33:23;103289.06;;;11.40;100.00
72438;BME280;60444;43.534;-5.674;2024-02-04T05:35:49;103278.25;;;11.36;100.00
72438;BME280;60444;43.534;-5.674;2024-02-04T05:38:16;103289.00;;;11.43;100.00
72438;BME280;60444;43.534;-5.674;2024-02-04T05:40:41;103309.66;;;11.52;100.00
72438;BME280;60444;43.534;-5.674;2024-02-04T05:43:07;103288.09;;;11.43;100.00
72438;BME280;60444;43.534;-5.674;2024-02-04T05:45:36;103273.78;;;11.35;100.00
72438;BME280;60444;43.534;-5.674;2024-02-04T05:48:02;103293.50;;;11.46;100.00
72438;BME280;60444;43.534;-5.674;2024-02-04T05:50:27;103279.09;;;11.41;100.00
72438;BME280;60444;43.534;-5.674;2024-02-04T05:52:53;103264.75;;;11.33;100.00
72438;BME280;60444;43.534;-5.674;2024-02-04T05:55:18;103271.97;;;11.34;100.00
72438;BME280;60444;43.534;-5.674;2024-02-04T05:57:44;103272.00;;;11.31;100.00
72438;BME280;60444;43.534;-5.674;2024-02-04T06:00:10;103296.16;;;11.49;100.00
72438;BME280;60444;43.534;-5.674;2024-02-04T06:02:36;103298.94;;;11.46;100.00
72438;BME280;60444;43.534;-5.674;2024-02-04T06:05:02;103300.66;;;11.50;100.00
72438;BME280;60444;43.534;-5.674;2024-02-04T06:07:27;103278.28;;;11.34;100.00
72438;BME280;60444;43.534;-5.674;2024-02-04T06:09:54;103263.06;;;11.26;100.00
72438;BME280;60444;43.534;-5.674;2024-02-04T06:12:21;103288.19;;;11.38;100.00
72438;BME280;60444;43.534;-5.674;2024-02-04T06:14:47;103299.81;;;11.48;100.00
72438;BME280;60444;43.534;-5.674;2024-02-04T06:17:12;103285.47;;;11.38;100.00
72438;BME280;60444;43.534;-5.674;2024-02-04T06:19:38;103289.94;;;11.39;100.00
72438;BME280;60444;43.534;-5.674;2024-02-04T06:22:03;103306.16;;;11.44;100.00
72438;BME280;60444;43.534;-5.674;2024-02-04T06:24:29;103284.69;;;11.27;100.00
72438;BME280;60444;43.534;-5.674;2024-02-04T06:26:54;103311.59;;;11.41;100.00
72438;BME280;60444;43.534;-5.674;2024-02-04T06:29:20;103304.47;;;11.34;100.00
72438;BME280;60444;43.534;-5.674;2024-02-04T06:31:48;103294.56;;;11.33;100.00
72438;BME280;60444;43.534;-5.674;2024-02-04T06:34:14;103306.31;;;11.32;100.00
72438;BME280;60444;43.534;-5.674;2024-02-04T06:36:43;103316.19;;;11.39;100.00
72438;BME280;60444;43.534;-5.674;2024-02-04T06:39:09;103323.44;;;11.34;100.00
72438;BME280;60444;43.534;-5.674;2024-02-04T06:41:35;103327.00;;;11.37;100.00
72438;BME280;60444;43.534;-5.674;2024-02-04T06:44:02;103322.56;;;11.32;100.00
72438;BME280;60444;43.534;-5.674;2024-02-04T06:46:28;103318.06;;;11.31;100.00
72438;BME280;60444;43.534;-5.674;2024-02-04T06:48:54;103321.69;;;11.31;100.00
72438;BME280;60444;43.534;-5.674;2024-02-04T06:51:19;103326.13;;;11.35;100.00
72438;BME280;60444;43.534;-5.674;2024-02-04T06:53:45;103305.50;;;11.25;100.00
72438;BME280;60444;43.534;-5.674;2024-02-04T06:56:11;103299.16;;;11.25;100.00
72438;BME280;60444;43.534;-5.674;2024-02-04T06:58:40;103327.03;;;11.36;100.00
72438;BME280;60444;43.534;-5.674;2024-02-04T07:01:06;103321.63;;;11.36;100.00
72438;BME280;60444;43.534;-5.674;2024-02-04T07:03:31;103307.31;;;11.26;100.00
72438;BME280;60444;43.534;-5.674;2024-02-04T07:05:58;103323.47;;;11.32;100.00
72438;BME280;60444;43.534;-5.674;2024-02-04T07:08:24;103304.69;;;11.19;100.00
72438;BME280;60444;43.534;-5.674;2024-02-04T07:10:50;103315.41;;;11.28;100.00
72438;BME280;60444;43.534;-5.674;2024-02-04T07:13:16;103292.09;;;11.13;100.00
72438;BME280;60444;43.534;-5.674;2024-02-04T07:15:42;103314.59;;;11.20;100.00
72438;BME280;60444;43.534;-5.674;2024-02-04T07:18:07;103329.84;;;11.30;100.00
72438;BME280;60444;43.534;-5.674;2024-02-04T07:20:33;103319.09;;;11.21;100.00
72438;BME280;60444;43.534;-5.674;2024-02-04T07:22:58;103305.59;;;11.16;100.00
72438;BME280;60444;43.534;-5.674;2024-02-04T07:25:24;103329.84;;;11.30;100.00
72438;BME280;60444;43.534;-5.674;2024-02-04T07:27:49;103335.31;;;11.24;100.00
72438;BME280;60444;43.534;-5.674;2024-02-04T07:30:15;103320.88;;;11.22;100.00
72438;BME280;60444;43.534;-5.674;2024-02-04T07:32:41;103344.22;;;11.35;100.00
72438;BME280;60444;43.534;-5.674;2024-02-04T07:35:07;103327.16;;;11.25;100.00
72438;BME280;60444;43.534;-5.674;2024-02-04T07:37:34;103343.28;;;11.36;100.00
72438;BME280;60444;43.534;-5.674;2024-02-04T07:40:00;103343.38;;;11.31;100.00
72438;BME280;60444;43.534;-5.674;2024-02-04T07:42:26;103335.28;;;11.27;100.00
72438;BME280;60444;43.534;-5.674;2024-02-04T07:44:53;103343.38;;;11.31;100.00
72438;BME280;60444;43.534;-5.674;2024-02-04T07:47:18;103337.09;;;11.28;100.00
72438;BME280;60444;43.534;-5.674;2024-02-04T07:49:47;103351.47;;;11.33;100.00
72438;BME280;60444;43.534;-5.674;2024-02-04T07:52:12;103353.34;;;11.28;100.00
72438;BME280;60444;43.534;-5.674;2024-02-04T07:54:38;103334.47;;;11.20;100.00
72438;BME280;60444;43.534;-5.674;2024-02-04T07:57:04;103332.63;;;11.22;100.00
72438;BME280;60444;43.534;-5.674;2024-02-04T07:59:29;103338.06;;;11.19;100.00
72438;BME280;60444;43.534;-5.674;2024-02-04T08:01:55;103331.81;;;11.13;100.00
72438;BME280;60444;43.534;-5.674;2024-02-04T08:04:20;103352.47;;;11.23;100.00
72438;BME280;60444;43.534;-5.674;2024-02-04T08:06:46;103356.03;;;11.29;100.00
72438;BME280;60444;43.534;-5.674;2024-02-04T08:09:12;103367.72;;;11.33;100.00
72438;BME280;60444;43.534;-5.674;2024-02-04T08:11:37;103342.56;;;11.22;100.00
72438;BME280;60444;43.534;-5.674;2024-02-04T08:14:03;103350.66;;;11.23;100.00
72438;BME280;60444;43.534;-5.674;2024-02-04T08:16:28;103344.44;;;11.17;100.00
72438;BME280;60444;43.534;-5.674;2024-02-04T08:18:54;103344.44;;;11.17;100.00
72438;BME280;60444;43.534;-5.674;2024-02-04T08:21:20;103336.34;;;11.12;100.00
72438;BME280;60444;43.534;-5.674;2024-02-04T08:23:45;103353.41;;;11.22;100.00
72438;BME280;60444;43.534;-5.674;2024-02-04T08:26:11;103352.47;;;11.23;100.00
72438;BME280;60444;43.534;-5.674;2024-02-04T08:28:37;103364.19;;;11.25;100.00
72438;BME280;60444;43.534;-5.674;2024-02-04T08:31:02;103341.78;;;11.09;100.00
72438;BME280;60444;43.534;-5.674;2024-02-04T08:33:28;103356.19;;;11.17;100.00
72438;BME280;60444;43.534;-5.674;2024-02-04T08:35:53;103358.81;;;11.22;100.00
72438;BME280;60444;43.534;-5.674;2024-02-04T08:38:18;103358.78;;;11.25;100.00
72438;BME280;60444;43.534;-5.674;2024-02-04T08:40:44;103369.66;;;11.22;100.00
72438;BME280;60444;43.534;-5.674;2024-02-04T08:43:10;103369.66;;;11.22;100.00
72438;BME280;60444;43.534;-5.674;2024-02-04T08:45:35;103371.47;;;11.20;100.00
72438;BME280;60444;43.534;-5.674;2024-02-04T08:48:00;103390.28;;;11.35;100.00
72438;BME280;60444;43.534;-5.674;2024-02-04T08:50:26;103364.22;;;11.23;100.00
72438;BME280;60444;43.534;-5.674;2024-02-04T08:52:51;103358.78;;;11.25;100.00
72438;BME280;60444;43.534;-5.674;2024-02-04T08:55:17;103362.34;;;11.28;100.00
72438;BME280;60444;43.534;-5.674;2024-02-04T08:57:43;103367.72;;;11.33;100.00
72438;BME280;60444;43.534;-5.674;2024-02-04T09:00:10;103357.78;;;11.33;100.00
72438;BME280;60444;43.534;-5.674;2024-02-04T09:02:37;103359.59;;;11.33;100.00
72438;BME280;60444;43.534;-5.674;2024-02-04T09:05:03;103354.19;;;11.31;100.00
72438;BME280;60444;43.534;-5.674;2024-02-04T09:07:30;103368.50;;;11.41;100.00
72438;BME280;60444;43.534;-5.674;2024-02-04T09:09:56;103374.78;;;11.47;100.00
72438;BME280;60444;43.534;-5.674;2024-02-04T09:12:22;103364.03;;;11.40;100.00
72438;BME280;60444;43.534;-5.674;2024-02-04T09:14:47;103376.56;;;11.52;100.00
72438;BME280;60444;43.534;-5.674;2024-02-04T09:17:13;103361.31;;;11.40;100.00
72438;BME280;60444;43.534;-5.674;2024-02-04T09:19:39;103364.84;;;11.46;100.00
72438;BME280;60444;43.534;-5.674;2024-02-04T09:22:05;103352.25;;;11.44;100.00
72438;BME280;60444;43.534;-5.674;2024-02-04T09:24:30;103352.28;;;11.42;100.00
72438;BME280;60444;43.534;-5.674;2024-02-04T09:26:56;103359.44;;;11.48;100.00
72438;BME280;60444;43.534;-5.674;2024-02-04T09:29:21;103351.31;;;11.48;100.00
72438;BME280;60444;43.534;-5.674;2024-02-04T09:31:47;103345.91;;;11.45;100.00
72438;BME280;60444;43.534;-5.674;2024-02-04T09:34:14;103350.34;;;11.50;100.00
72438;BME280;60444;43.534;-5.674;2024-02-04T09:36:40;103360.19;;;11.58;100.00
72438;BME280;60444;43.534;-5.674;2024-02-04T09:39:05;103367.44;;;11.57;100.00
72438;BME280;60444;43.534;-5.674;2024-02-04T09:41:31;103356.66;;;11.51;100.00
72438;BME280;60444;43.534;-5.674;2024-02-04T09:43:58;103359.25;;;11.62;100.00
72438;BME280;60444;43.534;-5.674;2024-02-04T09:46:25;103345.75;;;11.56;100.00
72438;BME280;60444;43.534;-5.674;2024-02-04T09:48:51;103356.50;;;11.65;100.00
72438;BME280;60444;43.534;-5.674;2024-02-04T09:51:17;103362.72;;;11.74;100.00
72438;BME280;60444;43.534;-5.674;2024-02-04T09:53:51;103377.09;;;11.81;100.00
72438;BME280;60444;43.534;-5.674;2024-02-04T09:56:17;103370.75;;;11.83;100.00
72438;BME280;60444;43.534;-5.674;2024-02-04T09:58:43;103361.72;;;11.81;100.00
72438;BME280;60444;43.534;-5.674;2024-02-04T10:01:10;103353.63;;;11.80;100.00
72438;BME280;60444;43.534;-5.674;2024-02-04T10:03:37;103358.88;;;11.90;100.00
72438;BME280;60444;43.534;-5.674;2024-02-04T10:06:03;103336.47;;;11.78;100.00
72438;BME280;60444;43.534;-5.674;2024-02-04T10:08:28;103364.28;;;11.95;100.00
72438;BME280;60444;43.534;-5.674;2024-02-04T10:10:54;103346.28;;;11.88;100.00
72438;BME280;60444;43.534;-5.674;2024-02-04T10:13:21;103339.09;;;11.84;100.00
72438;BME280;60444;43.534;-5.674;2024-02-04T10:15:49;103359.72;;;11.95;100.00
72438;BME280;60444;43.534;-5.674;2024-02-04T10:18:17;103344.41;;;11.93;100.00
72438;BME280;60444;43.534;-5.674;2024-02-04T10:20:43;103367.72;;;12.06;100.00
72438;BME280;60444;43.534;-5.674;2024-02-04T10:23:08;103343.44;;;11.95;100.00
72438;BME280;60444;43.534;-5.674;2024-02-04T10:25:34;103318.25;;;11.87;100.00
72438;BME280;60444;43.534;-5.674;2024-02-04T10:27:59;103355.00;;;12.09;100.00
72438;BME280;60444;43.534;-5.674;2024-02-04T10:30:25;103332.50;;;12.01;100.00
72438;BME280;60444;43.534;-5.674;2024-02-04T10:32:52;103337.91;;;12.03;100.00
72438;BME280;60444;43.534;-5.674;2024-02-04T10:35:19;103346.03;;;12.06;100.00
72438;BME280;60444;43.534;-5.674;2024-02-04T10:37:45;103339.63;;;12.10;100.00
72438;BME280;60444;43.534;-5.674;2024-02-04T10:40:11;103339.63;;;12.10;100.00
72438;BME280;60444;43.534;-5.674;2024-02-04T10:42:37;103340.53;;;12.10;100.00
72438;BME280;60444;43.534;-5.674;2024-02-04T10:45:08;103332.31;;;12.13;100.00
72438;BME280;60444;43.534;-5.674;2024-02-04T10:47:37;103351.19;;;12.24;100.00
72438;BME280;60444;43.534;-5.674;2024-02-04T10:50:04;103352.03;;;12.27;100.00
72438;BME280;60444;43.534;-5.674;2024-02-04T10:52:36;103328.59;;;12.20;100.00
72438;BME280;60444;43.534;-5.674;2024-02-04T10:55:06;103339.22;;;12.35;100.00
72438;BME280;60444;43.534;-5.674;2024-02-04T10:57:32;103313.22;;;12.21;100.00
72438;BME280;60444;43.534;-5.674;2024-02-04T10:59:59;103342.75;;;12.40;100.00
72438;BME280;60444;43.534;-5.674;2024-02-04T11:02:26;103308.59;;;12.27;100.00
72438;BME280;60444;43.534;-5.674;2024-02-04T11:04:53;103328.28;;;12.41;100.00
72438;BME280;60444;43.534;-5.674;2024-02-04T11:07:20;103336.28;;;12.49;100.00
72438;BME280;60444;43.534;-5.674;2024-02-04T11:09:48;103323.72;;;12.42;100.00
72438;BME280;60444;43.534;-5.674;2024-02-04T11:12:18;103328.13;;;12.50;100.00
72438;BME280;60444;43.534;-5.674;2024-02-04T11:14:48;103302.88;;;12.44;100.00
72438;BME280;60444;43.534;-5.674;2024-02-04T11:25:54;103308.78;;;12.69;100.00
72438;BME280;60444;43.534;-5.674;2024-02-04T11:28:21;103297.97;;;12.66;100.00
72438;BME280;60444;43.534;-5.674;2024-02-04T11:30:47;103302.44;;;12.70;100.00
72438;BME280;60444;43.534;-5.674;2024-02-04T11:33:18;103304.16;;;12.74;100.00
72438;BME280;60444;43.534;-5.674;2024-02-04T11:35:44;103291.56;;;12.70;100.00
72438;BME280;60444;43.534;-5.674;2024-02-04T11:38:10;103283.38;;;12.73;100.00
72438;BME280;60444;43.534;-5.674;2024-02-04T11:40:39;103287.75;;;12.81;100.00
72438;BME280;60444;43.534;-5.674;2024-02-04T11:43:06;103298.44;;;12.90;100.00
72438;BME280;60444;43.534;-5.674;2024-02-04T11:45:31;103281.34;;;12.84;100.00
72438;BME280;60444;43.534;-5.674;2024-02-04T11:48:01;103261.50;;;12.80;100.00
72438;BME280;60444;43.534;-5.674;2024-02-04T11:50:30;103282.97;;;12.94;100.00
72438;BME280;60444;43.534;-5.674;2024-02-04T11:53:12;103281.00;;;13.03;100.00
72438;BME280;60444;43.534;-5.674;2024-02-04T11:55:40;103264.72;;;13.03;100.00
72438;BME280;60444;43.534;-5.674;2024-02-04T11:58:06;103275.34;;;13.14;100.00
72438;BME280;60444;43.534;-5.674;2024-02-04T12:00:36;103265.34;;;13.16;100.00
72438;BME280;60444;43.534;-5.674;2024-02-04T12:03:06;103244.63;;;13.10;100.00
72438;BME280;60444;43.534;-5.674;2024-02-04T12:05:35;103249.00;;;13.17;100.00
72438;BME280;60444;43.534;-5.674;2024-02-04T12:08:06;103249.66;;;13.30;100.00
72438;BME280;60444;43.534;-5.674;2024-02-04T12:10:35;103248.72;;;13.31;100.00
72438;BME280;60444;43.534;-5.674;2024-02-04T12:13:06;103222.59;;;13.24;100.00
72438;BME280;60444;43.534;-5.674;2024-02-04T12:15:34;103233.09;;;13.40;100.00
72438;BME280;60444;43.534;-5.674;2024-02-04T12:20:33;103236.38;;;13.56;100.00
72438;BME280;60444;43.534;-5.674;2024-02-04T12:22:58;103229.03;;;13.60;100.00
72438;BME280;60444;43.534;-5.674;2024-02-04T12:25:24;103210.19;;;13.52;100.00
72438;BME280;60444;43.534;-5.674;2024-02-04T12:27:53;103211.03;;;13.54;100.00
72438;BME280;60444;43.534;-5.674;2024-02-04T12:30:18;103190.34;;;13.47;100.00
72438;BME280;60444;43.534;-5.674;2024-02-04T12:32:44;103218.03;;;13.66;100.00
72438;BME280;60444;43.534;-5.674;2024-02-04T12:35:15;103216.97;;;13.71;100.00
72438;BME280;60444;43.534;-5.674;2024-02-04T12:37:54;103222.38;;;13.73;100.00
72438;BME280;60444;43.534;-5.674;2024-02-04T12:40:29;103215.22;;;13.70;100.00
72438;BME280;60444;43.534;-5.674;2024-02-04T12:42:59;103182.97;;;13.53;100.00